Time;durP1;ratioP1;P1;durP2;ratioP2;P2;SDS_P1;SDS_P2;PMS_P1;PMS_P2;Temp;Humidity;BMP_temperature;BMP_pressure;BME280_temperature;BME280_humidity;BME280_pressure;Samples;Min_cycle;Max_cycle;Signal;HPM_P1;HPM_P2
2022/08/29 00:01:48;;;;;;;1.95;1.40;;;16.80;99.90;;;;;;5021426;28;20195;-61
2022/08/29 00:04:14;;;;;;;4.22;1.67;;;16.80;99.90;;;;;;5013219;28;20659;-61
2022/08/29 00:06:40;;;;;;;1.88;1.52;;;16.70;99.90;;;;;;5016363;28;20219;-61
2022/08/29 00:09:06;;;;;;;1.88;1.77;;;16.60;99.90;;;;;;5049798;28;20191;-61
2022/08/29 00:11:32;;;;;;;1.88;1.40;;;16.60;99.90;;;;;;5029322;28;20230;-62
2022/08/29 00:13:58;;;;;;;2.55;1.55;;;16.50;99.90;;;;;;5015169;28;20219;-61
2022/08/29 00:16:23;;;;;;;3.00;1.67;;;16.60;99.90;;;;;;5026781;28;20199;-61
2022/08/29 00:18:49;;;;;;;4.32;2.35;;;16.50;99.90;;;;;;5031502;28;20221;-61
2022/08/29 00:21:15;;;;;;;3.38;3.00;;;16.60;99.90;;;;;;5021709;28;20667;-61
2022/08/29 00:23:43;;;;;;;6.72;2.42;;;16.50;99.90;;;;;;5026090;28;20195;-61
2022/08/29 00:26:09;;;;;;;2.03;1.83;;;16.50;99.90;;;;;;5017980;28;20253;-61
2022/08/29 00:28:35;;;;;;;2.05;1.88;;;16.50;99.90;;;;;;5013945;28;20199;-61
2022/08/29 00:31:00;;;;;;;1.50;1.40;;;16.40;99.90;;;;;;5013705;28;20186;-61
2022/08/29 00:33:26;;;;;;;2.17;1.65;;;16.40;99.90;;;;;;5014113;28;20195;-61
2022/08/29 00:35:52;;;;;;;3.63;1.98;;;16.40;99.90;;;;;;5015891;28;20278;-61
2022/08/29 00:38:18;;;;;;;5.90;2.22;;;16.30;99.90;;;;;;5019937;28;20191;-61
2022/08/29 00:40:47;;;;;;;2.90;2.00;;;16.40;99.90;;;;;;5017303;28;20558;-61
2022/08/29 00:43:17;;;;;;;2.10;1.83;;;16.40;99.90;;;;;;5017130;28;20174;-61
2022/08/29 00:45:58;;;;;;;2.45;1.92;;;16.40;99.90;;;;;;5013670;28;20213;-61
2022/08/29 00:48:23;;;;;;;2.40;2.00;;;16.40;99.90;;;;;;5013159;28;20178;-61
2022/08/29 00:50:57;;;;;;;2.22;2.03;;;16.40;99.90;;;;;;5013062;28;20589;-61
2022/08/29 00:53:29;;;;;;;3.10;2.00;;;16.30;99.90;;;;;;5015837;28;20167;-61
2022/08/29 00:55:55;;;;;;;4.18;2.05;;;16.10;99.90;;;;;;5022099;28;20214;-61
2022/08/29 00:58:31;;;;;;;2.60;2.33;;;16.10;99.90;;;;;;5027362;28;20265;-61
2022/08/29 01:00:57;;;;;;;1.85;1.73;;;16.20;99.90;;;;;;5015086;28;20179;-63
2022/08/29 01:03:24;;;;;;;3.22;1.77;;;16.20;99.90;;;;;;5027511;28;20633;-61
2022/08/29 01:05:50;;;;;;;2.78;2.10;;;16.10;99.90;;;;;;5015139;28;20214;-62
2022/08/29 01:08:16;;;;;;;6.63;2.33;;;16.10;99.90;;;;;;5013571;28;20233;-61
2022/08/29 01:13:37;;;;;;;2.10;1.70;;;15.90;99.90;;;;;;5017826;28;20203;-61
2022/08/29 01:16:05;;;;;;;3.03;1.83;;;15.90;99.90;;;;;;5018966;28;20195;-61
2022/08/29 01:18:35;;;;;;;1.92;1.70;;;15.90;99.90;;;;;;5032610;28;20646;-61
2022/08/29 01:21:43;;;;;;;5.10;2.00;;;15.90;99.90;;;;;;5012799;28;20183;-61
2022/08/29 01:24:31;;;;;;;2.95;1.88;;;15.90;99.90;;;;;;5016818;28;20253;-61
2022/08/29 01:26:57;;;;;;;2.80;2.30;;;15.80;99.90;;;;;;5019848;28;20178;-60
2022/08/29 01:29:23;;;;;;;4.25;2.25;;;15.70;99.90;;;;;;5019687;28;20245;-61
2022/08/29 01:31:50;;;;;;;3.50;2.03;;;15.60;99.90;;;;;;5027914;28;20187;-62
2022/08/29 01:34:18;;;;;;;3.40;1.88;;;15.50;99.90;;;;;;5020911;28;20187;-61
2022/08/29 01:36:54;;;;;;;6.60;1.88;;;15.40;99.90;;;;;;5043791;28;20195;-60
2022/08/29 01:39:25;;;;;;;3.95;2.80;;;15.50;99.90;;;;;;5016674;28;20175;-60
2022/08/29 01:41:51;;;;;;;4.18;2.50;;;15.60;99.90;;;;;;5012944;28;20214;-61
2022/08/29 01:44:19;;;;;;;5.85;2.33;;;15.60;99.90;;;;;;5025210;28;20186;-61
2022/08/29 01:46:46;;;;;;;3.50;2.50;;;15.60;99.90;;;;;;5022853;28;20305;-63
2022/08/29 01:49:13;;;;;;;3.38;2.47;;;15.50;99.90;;;;;;5016969;28;20195;-61
2022/08/29 01:51:40;;;;;;;3.42;2.85;;;15.50;99.90;;;;;;5029656;28;20270;-60
2022/08/29 01:54:08;;;;;;;3.28;2.95;;;15.50;99.90;;;;;;5020536;28;20199;-60
2022/08/29 01:56:37;;;;;;;2.55;2.10;;;15.50;99.90;;;;;;5012851;28;20194;-60
2022/08/29 01:59:06;;;;;;;2.90;2.10;;;15.50;99.90;;;;;;5012651;28;20652;-60
2022/08/29 02:01:36;;;;;;;3.38;2.60;;;15.50;99.90;;;;;;5013606;28;20573;-61
2022/08/29 02:04:02;;;;;;;3.47;2.17;;;15.40;99.90;;;;;;5022573;28;20190;-60
2022/08/29 02:06:28;;;;;;;4.65;3.13;;;15.40;99.90;;;;;;5028379;28;20241;-60
2022/08/29 02:08:54;;;;;;;3.60;3.10;;;15.30;99.90;;;;;;5019539;28;20197;-59
2022/08/29 02:11:21;;;;;;;2.63;2.42;;;15.30;99.90;;;;;;5030259;28;20183;-60
2022/08/29 02:13:51;;;;;;;4.63;2.78;;;15.40;99.90;;;;;;5030214;28;20585;-60
2022/08/29 02:16:17;;;;;;;3.33;2.65;;;15.40;99.90;;;;;;5018303;28;20191;-60
2022/08/29 02:18:44;;;;;;;2.15;2.00;;;15.30;99.90;;;;;;5014211;28;20187;-60
2022/08/29 02:21:12;;;;;;;4.22;2.78;;;15.30;99.90;;;;;;5033813;28;20534;-60
2022/08/29 02:23:39;;;;;;;4.32;2.47;;;15.40;99.90;;;;;;5012865;28;20266;-60
2022/08/29 02:26:05;;;;;;;5.07;2.38;;;15.40;99.90;;;;;;5019372;28;20571;-60
2022/08/29 02:28:32;;;;;;;4.45;2.92;;;15.60;99.90;;;;;;5012426;28;20660;-60
2022/08/29 02:30:58;;;;;;;5.07;3.70;;;15.50;99.90;;;;;;5017113;28;20190;-61
2022/08/29 02:33:24;;;;;;;4.35;2.30;;;15.30;99.90;;;;;;5024487;28;20204;-61
2022/08/29 02:35:52;;;;;;;3.03;2.70;;;15.40;99.90;;;;;;5029393;28;20649;-60
2022/08/29 02:38:18;;;;;;;4.20;2.80;;;15.30;99.90;;;;;;5016459;28;20183;-63
2022/08/29 02:40:44;;;;;;;6.97;3.10;;;15.30;99.90;;;;;;5020948;28;20576;-61
2022/08/29 02:43:10;;;;;;;5.82;2.20;;;15.30;99.90;;;;;;5015882;28;20188;-62
2022/08/29 02:45:41;;;;;;;9.80;2.90;;;15.30;99.90;;;;;;5014880;28;20683;-62
2022/08/29 02:48:07;;;;;;;5.63;3.17;;;15.30;99.90;;;;;;5020961;28;20179;-61
2022/08/29 02:50:34;;;;;;;4.57;2.67;;;15.30;99.90;;;;;;5015979;28;20195;-61
2022/08/29 02:53:00;;;;;;;6.32;2.70;;;15.20;99.90;;;;;;5023418;28;20203;-61
2022/08/29 02:55:26;;;;;;;5.05;3.47;;;15.20;99.90;;;;;;5015396;28;20626;-61
2022/08/29 02:57:53;;;;;;;5.07;2.78;;;15.10;99.90;;;;;;5014232;28;20265;-61
2022/08/29 03:00:24;;;;;;;2.78;2.58;;;15.10;99.90;;;;;;5022946;28;20214;-61
2022/08/29 03:02:50;;;;;;;6.60;2.47;;;14.90;99.90;;;;;;5024367;28;20650;-61
2022/08/29 03:05:20;;;;;;;4.32;3.72;;;14.90;99.90;;;;;;5025070;28;20215;-61
2022/08/29 03:07:46;;;;;;;4.57;2.15;;;14.90;99.90;;;;;;5015148;28;20282;-63
2022/08/29 03:10:12;;;;;;;5.88;3.13;;;14.90;99.90;;;;;;5019654;28;20194;-61
2022/08/29 03:12:38;;;;;;;3.10;2.88;;;14.90;99.90;;;;;;5038174;28;20183;-61
2022/08/29 03:15:05;;;;;;;6.45;3.03;;;15.00;99.90;;;;;;5023115;28;20195;-61
2022/08/29 03:17:31;;;;;;;5.03;3.33;;;15.00;99.90;;;;;;5029016;28;20205;-62
2022/08/29 03:19:57;;;;;;;5.53;2.55;;;15.00;99.90;;;;;;5023044;28;20187;-62
2022/08/29 03:22:24;;;;;;;5.20;2.97;;;14.80;99.90;;;;;;5028325;28;20183;-61
2022/08/29 03:24:50;;;;;;;5.25;3.17;;;14.80;99.90;;;;;;5027256;28;20204;-61
2022/08/29 03:27:17;;;;;;;7.25;3.53;;;14.90;99.90;;;;;;5019201;28;20183;-61
2022/08/29 03:29:42;;;;;;;5.53;2.83;;;14.90;99.90;;;;;;5014582;28;20245;-61
2022/08/29 03:32:08;;;;;;;2.95;2.50;;;14.90;99.90;;;;;;5015327;28;20183;-61
2022/08/29 03:34:34;;;;;;;4.30;2.80;;;14.90;99.90;;;;;;5016866;28;20262;-61
2022/08/29 03:36:59;;;;;;;4.65;2.50;;;15.00;99.90;;;;;;5013802;28;20197;-61
2022/08/29 03:39:26;;;;;;;3.67;2.80;;;15.00;99.90;;;;;;5014977;28;20537;-62
2022/08/29 03:41:52;;;;;;;3.97;2.75;;;14.90;99.90;;;;;;5013796;28;20675;-61
2022/08/29 03:44:18;;;;;;;3.80;2.83;;;14.90;99.90;;;;;;5014872;28;20270;-61
2022/08/29 03:46:43;;;;;;;4.00;2.58;;;14.90;99.90;;;;;;5014619;28;20675;-61
2022/08/29 03:49:09;;;;;;;5.60;3.13;;;14.90;99.90;;;;;;5014876;28;20547;-61
2022/08/29 03:51:37;;;;;;;3.63;3.28;;;14.80;99.90;;;;;;5014837;28;20190;-61
2022/08/29 03:54:04;;;;;;;3.65;2.83;;;14.90;99.90;;;;;;5046098;28;20638;-61
2022/08/29 03:56:29;;;;;;;5.47;3.38;;;15.10;99.90;;;;;;5014561;28;20202;-61
2022/08/29 03:58:57;;;;;;;4.53;2.78;;;15.10;99.90;;;;;;5013654;28;20640;-61
2022/08/29 04:01:25;;;;;;;4.75;3.70;;;15.00;99.90;;;;;;5014516;28;20188;-62
2022/08/29 04:03:52;;;;;;;4.43;2.75;;;15.00;99.90;;;;;;5027123;28;20178;-61
2022/08/29 04:06:18;;;;;;;3.40;2.35;;;15.00;99.90;;;;;;5026491;28;20199;-59
2022/08/29 04:08:48;;;;;;;3.72;2.47;;;15.10;99.90;;;;;;5023061;28;20191;-60
2022/08/29 04:11:16;;;;;;;3.97;2.67;;;15.00;99.90;;;;;;5028298;28;20180;-60
2022/08/29 04:13:41;;;;;;;4.35;3.03;;;15.00;99.90;;;;;;5014533;28;20183;-60
2022/08/29 04:16:13;;;;;;;3.78;3.00;;;14.90;99.90;;;;;;5029261;28;20194;-60
2022/08/29 04:18:39;;;;;;;5.78;2.45;;;15.00;99.90;;;;;;5023450;28;20671;-60
2022/08/29 04:21:05;;;;;;;4.30;3.35;;;15.00;99.90;;;;;;5017891;28;20274;-60
2022/08/29 04:23:32;;;;;;;4.25;2.42;;;15.00;99.90;;;;;;5013972;28;20210;-61
2022/08/29 04:25:58;;;;;;;3.90;3.58;;;15.00;99.90;;;;;;5019853;28;20215;-61
2022/08/29 04:28:24;;;;;;;3.85;2.83;;;14.90;99.90;;;;;;5016367;28;20213;-60
2022/08/29 04:30:52;;;;;;;4.47;2.88;;;14.90;99.90;;;;;;5016269;28;20217;-61
2022/08/29 04:33:19;;;;;;;6.53;3.80;;;15.00;99.90;;;;;;5016425;28;20267;-61
2022/08/29 04:35:45;;;;;;;5.13;4.63;;;15.00;99.90;;;;;;5012375;28;20191;-60
2022/08/29 04:38:10;;;;;;;3.83;3.15;;;14.90;99.90;;;;;;5023032;28;20187;-61
2022/08/29 04:40:39;;;;;;;3.42;3.10;;;14.80;99.90;;;;;;5017357;28;20191;-60
2022/08/29 04:43:04;;;;;;;7.20;2.85;;;14.70;99.90;;;;;;5020206;28;20640;-60
2022/08/29 04:45:32;;;;;;;3.20;2.90;;;14.60;99.90;;;;;;5015232;28;20320;-61
2022/08/29 04:47:57;;;;;;;5.10;3.05;;;14.60;99.90;;;;;;5039122;28;20198;-60
2022/08/29 04:50:23;;;;;;;3.42;2.83;;;14.60;99.90;;;;;;5026424;28;20186;-60
2022/08/29 04:52:51;;;;;;;4.53;3.20;;;14.60;99.90;;;;;;5023318;28;20273;-60
2022/08/29 04:55:18;;;;;;;3.90;2.55;;;14.70;99.90;;;;;;5024980;28;20194;-60
2022/08/29 04:57:44;;;;;;;4.07;3.35;;;14.70;99.90;;;;;;5020912;28;20214;-60
2022/08/29 05:00:13;;;;;;;6.53;3.58;;;14.80;99.90;;;;;;5022485;28;20218;-61
2022/08/29 05:02:40;;;;;;;7.00;4.00;;;14.80;99.90;;;;;;5013404;28;20241;-60
2022/08/29 05:05:08;;;;;;;3.95;3.22;;;14.80;99.90;;;;;;5013603;28;20211;-60
2022/08/29 05:07:34;;;;;;;5.30;3.92;;;14.80;99.90;;;;;;5012957;28;20770;-60
2022/08/29 05:10:05;;;;;;;6.13;3.88;;;14.90;99.90;;;;;;5015891;28;20262;-60
2022/08/29 05:12:32;;;;;;;5.28;3.05;;;14.80;99.90;;;;;;5013175;28;20183;-60
2022/08/29 05:14:58;;;;;;;4.45;4.05;;;14.70;99.90;;;;;;5018248;28;20182;-60
2022/08/29 05:17:25;;;;;;;4.60;3.00;;;14.80;99.90;;;;;;5031574;28;20592;-61
2022/08/29 05:19:51;;;;;;;6.72;3.38;;;15.00;99.90;;;;;;5030379;28;20602;-60
2022/08/29 05:22:18;;;;;;;4.03;2.95;;;15.10;99.90;;;;;;5022467;28;20210;-60
2022/08/29 05:24:45;;;;;;;5.85;3.10;;;15.10;99.90;;;;;;5046846;28;20186;-60
2022/08/29 05:27:16;;;;;;;6.78;3.35;;;15.00;99.90;;;;;;5016790;28;20194;-60
2022/08/29 05:29:44;;;;;;;4.88;3.40;;;15.00;99.90;;;;;;5021760;28;20761;-60
2022/08/29 05:32:13;;;;;;;3.20;2.50;;;15.00;99.90;;;;;;5012797;28;20183;-60
2022/08/29 05:34:40;;;;;;;3.78;3.13;;;15.20;99.90;;;;;;5026944;28;20187;-61
2022/08/29 05:37:09;;;;;;;4.60;2.60;;;15.20;99.90;;;;;;5021670;28;20218;-60
2022/08/29 05:39:37;;;;;;;5.05;3.00;;;15.10;99.90;;;;;;5016835;28;20252;-60
2022/08/29 05:42:05;;;;;;;6.82;3.10;;;15.10;99.90;;;;;;5028781;28;20210;-60
2022/08/29 05:44:33;;;;;;;4.15;3.20;;;15.20;99.90;;;;;;5021221;28;20183;-60
2022/08/29 05:46:59;;;;;;;6.25;3.30;;;15.00;99.90;;;;;;5014952;28;20202;-61
2022/08/29 05:49:26;;;;;;;7.63;3.53;;;15.10;99.90;;;;;;5011412;28;20188;-60
2022/08/29 05:51:55;;;;;;;5.28;3.88;;;15.10;99.90;;;;;;5015135;28;20284;-60
2022/08/29 05:54:23;;;;;;;6.07;4.82;;;15.30;99.90;;;;;;5011230;28;20529;-60
2022/08/29 05:56:49;;;;;;;5.25;3.40;;;15.30;99.90;;;;;;5011558;28;20237;-60
2022/08/29 05:59:16;;;;;;;3.95;3.05;;;15.30;99.90;;;;;;5010859;28;20192;-60
2022/08/29 06:01:42;;;;;;;9.20;3.95;;;15.50;99.90;;;;;;5013727;28;20278;-60
2022/08/29 06:04:08;;;;;;;7.55;4.25;;;15.50;99.90;;;;;;5025937;28;20265;-60
2022/08/29 06:06:33;;;;;;;9.75;3.50;;;15.30;99.90;;;;;;5017520;28;20218;-62
2022/08/29 06:08:59;;;;;;;4.95;3.35;;;15.20;99.90;;;;;;5021868;28;20190;-60
2022/08/29 06:11:28;;;;;;;5.93;4.03;;;15.20;99.90;;;;;;5017667;28;20636;-60
2022/08/29 06:13:54;;;;;;;7.68;3.92;;;15.20;99.90;;;;;;5026945;28;20601;-60
2022/08/29 06:16:22;;;;;;;4.63;3.45;;;15.30;99.90;;;;;;5018179;28;20175;-61
2022/08/29 06:18:48;;;;;;;6.70;3.92;;;15.30;99.90;;;;;;5018921;28;20180;-60
2022/08/29 06:21:14;;;;;;;5.95;4.13;;;15.30;99.90;;;;;;5022012;28;20721;-60
2022/08/29 06:23:41;;;;;;;6.75;3.90;;;15.20;99.90;;;;;;5030044;28;20193;-60
2022/08/29 06:26:08;;;;;;;7.63;3.38;;;15.20;99.90;;;;;;5019763;28;20679;-60
2022/08/29 06:28:39;;;;;;;6.03;3.75;;;15.50;99.90;;;;;;5015631;28;20230;-60
2022/08/29 06:31:10;;;;;;;6.90;4.45;;;15.60;99.90;;;;;;5018156;28;20187;-60
2022/08/29 06:33:36;;;;;;;5.47;4.43;;;15.80;99.90;;;;;;5016578;28;20190;-60
2022/08/29 06:36:03;;;;;;;5.45;3.65;;;15.80;99.90;;;;;;5027069;28;20186;-60
2022/08/29 06:38:29;;;;;;;10.13;3.90;;;15.60;99.90;;;;;;5018312;28;20207;-60
2022/08/29 06:40:55;;;;;;;5.90;3.80;;;15.80;99.90;;;;;;5014981;28;20639;-60
2022/08/29 06:43:21;;;;;;;6.30;3.72;;;15.80;99.90;;;;;;5019821;28;20214;-60
2022/08/29 06:45:48;;;;;;;4.68;2.92;;;15.70;99.90;;;;;;5022372;28;20297;-60
2022/08/29 06:48:13;;;;;;;12.70;3.72;;;15.80;99.90;;;;;;5018397;28;20540;-60
2022/08/29 06:50:40;;;;;;;4.53;3.13;;;15.80;99.90;;;;;;5047885;28;20191;-60
2022/08/29 06:53:09;;;;;;;3.55;2.85;;;15.90;99.90;;;;;;5020072;28;20205;-60
2022/08/29 06:55:36;;;;;;;3.30;2.67;;;15.80;99.90;;;;;;5030029;28;20290;-61
2022/08/29 06:58:02;;;;;;;3.53;3.22;;;15.80;99.90;;;;;;5019182;28;20191;-61
2022/08/29 07:00:28;;;;;;;5.88;4.18;;;15.80;99.90;;;;;;5027645;28;20183;-61
2022/08/29 07:02:53;;;;;;;5.22;2.65;;;16.10;99.90;;;;;;5017737;28;20297;-60
2022/08/29 07:05:22;;;;;;;3.33;3.03;;;16.40;99.90;;;;;;5024966;28;20215;-61
2022/08/29 07:07:48;;;;;;;3.92;2.70;;;16.50;99.90;;;;;;5015191;28;20238;-60
2022/08/29 07:10:14;;;;;;;4.28;2.30;;;16.70;99.90;;;;;;5021225;28;20182;-60
2022/08/29 07:12:40;;;;;;;4.10;2.72;;;16.60;99.90;;;;;;5024484;28;20192;-61
2022/08/29 07:15:06;;;;;;;5.63;2.85;;;16.40;99.90;;;;;;5023806;28;20186;-60
2022/08/29 07:17:32;;;;;;;3.90;2.72;;;16.60;99.90;;;;;;5028511;28;20182;-61
2022/08/29 07:19:58;;;;;;;3.25;2.75;;;16.70;99.90;;;;;;5015150;28;20579;-63
2022/08/29 07:22:27;;;;;;;4.43;2.70;;;16.80;99.90;;;;;;5029638;28;20233;-60
2022/08/29 07:24:55;;;;;;;16.70;3.55;;;16.80;99.90;;;;;;5043047;28;20202;-61
2022/08/29 07:27:21;;;;;;;2.58;2.17;;;16.90;99.90;;;;;;5015818;28;20191;-61
2022/08/29 07:29:47;;;;;;;2.35;2.17;;;17.10;99.90;;;;;;5017083;28;20585;-60
2022/08/29 07:32:13;;;;;;;10.07;2.30;;;17.30;99.90;;;;;;5015720;28;20658;-61
2022/08/29 07:34:39;;;;;;;6.60;3.70;;;17.90;99.90;;;;;;5001851;28;20222;-62
2022/08/29 07:37:04;;;;;;;7.30;2.50;;;18.10;99.90;;;;;;5018337;28;20190;-62
2022/08/29 07:39:30;;;;;;;4.82;1.95;;;18.10;99.90;;;;;;5023415;28;20274;-61
2022/08/29 07:41:57;;;;;;;5.38;3.13;;;18.10;99.90;;;;;;5016052;28;20182;-61
2022/08/29 07:44:24;;;;;;;2.90;2.42;;;18.30;99.90;;;;;;5026211;28;20183;-62
2022/08/29 07:46:54;;;;;;;3.80;2.40;;;18.20;99.90;;;;;;5019114;28;20567;-67
2022/08/29 07:49:20;;;;;;;7.88;2.25;;;18.40;99.90;;;;;;5020820;28;20197;-66
2022/08/29 07:51:45;;;;;;;7.13;2.75;;;18.40;99.90;;;;;;5024252;28;20547;-60
2022/08/29 07:54:15;;;;;;;6.80;2.72;;;18.50;99.90;;;;;;5013833;28;20202;-60
2022/08/29 07:56:41;;;;;;;2.78;1.90;;;18.20;99.90;;;;;;5013690;28;20187;-60
2022/08/29 07:59:08;;;;;;;3.80;1.85;;;18.30;99.90;;;;;;5014407;28;20187;-60
2022/08/29 08:01:34;;;;;;;4.05;2.00;;;18.50;99.90;;;;;;5014541;28;20262;-60
2022/08/29 08:04:00;;;;;;;2.28;1.75;;;18.60;99.90;;;;;;5014015;28;20180;-62
2022/08/29 08:06:26;;;;;;;3.78;1.73;;;18.60;99.90;;;;;;5016868;28;20694;-61
2022/08/29 08:08:52;;;;;;;3.78;1.50;;;18.70;99.90;;;;;;5013371;28;20242;-59
2022/08/29 08:11:19;;;;;;;3.83;1.60;;;19.00;99.90;;;;;;5019973;28;20199;-60
2022/08/29 08:13:45;;;;;;;2.97;2.05;;;19.80;99.90;;;;;;5015325;28;20583;-61
2022/08/29 08:16:14;;;;;;;5.93;1.85;;;20.60;99.90;;;;;;5054581;28;20277;-61
2022/08/29 08:18:41;;;;;;;1.67;1.58;;;21.10;99.90;;;;;;5020047;28;20171;-60
2022/08/29 08:21:07;;;;;;;4.07;2.30;;;20.90;99.90;;;;;;5015725;28;20255;-61
2022/08/29 08:23:32;;;;;;;3.50;2.13;;;21.00;99.90;;;;;;5021371;28;20195;-62
2022/08/29 08:25:59;;;;;;;1.95;1.30;;;21.30;99.90;;;;;;5014745;28;20254;-62
2022/08/29 08:28:27;;;;;;;2.88;1.77;;;21.90;99.90;;;;;;5018506;28;20536;-61
2022/08/29 08:30:52;;;;;;;2.50;1.50;;;22.30;99.90;;;;;;5021587;28;20706;-60
2022/08/29 08:33:18;;;;;;;2.72;1.58;;;22.40;99.90;;;;;;5021967;28;20187;-60
2022/08/29 08:35:44;;;;;;;8.52;1.98;;;21.30;99.90;;;;;;5034451;28;20670;-60
2022/08/29 08:38:09;;;;;;;4.80;2.63;;;21.50;99.90;;;;;;5012121;28;20261;-60
2022/08/29 08:40:47;;;;;;;2.90;2.00;;;21.50;99.90;;;;;;5013809;28;20202;-61
2022/08/29 08:43:17;;;;;;;5.40;2.00;;;21.60;99.90;;;;;;5027051;28;20202;-61
2022/08/29 08:45:44;;;;;;;9.77;2.33;;;22.80;99.90;;;;;;5023323;28;20218;-61
2022/08/29 08:48:17;;;;;;;5.32;2.20;;;23.50;99.90;;;;;;5018724;28;20244;-61
2022/08/29 08:50:52;;;;;;;1.90;1.67;;;23.10;99.90;;;;;;5017679;28;20183;-61
2022/08/29 08:53:39;;;;;;;4.88;2.33;;;23.70;99.90;;;;;;5013225;28;20202;-60
2022/08/29 08:56:29;;;;;;;6.63;2.47;;;23.00;99.90;;;;;;5013512;28;20217;-61
2022/08/29 08:59:02;;;;;;;4.78;3.05;;;22.30;99.90;;;;;;5013993;28;20184;-62
2022/08/29 09:01:41;;;;;;;2.60;1.90;;;21.30;99.90;;;;;;5018775;28;20206;-62
2022/08/29 09:04:34;;;;;;;3.45;1.88;;;20.80;99.90;;;;;;5013371;28;20190;-61
2022/08/29 09:07:32;;;;;;;3.22;1.88;;;20.70;99.90;;;;;;5018884;28;20215;-63
2022/08/29 09:10:13;;;;;;;2.65;1.98;;;21.10;99.90;;;;;;5013036;28;20198;-62
2022/08/29 09:12:57;;;;;;;3.30;1.98;;;20.90;99.90;;;;;;5016030;28;20181;-61
2022/08/29 09:15:30;;;;;;;3.53;2.30;;;20.70;99.90;;;;;;5022082;28;20202;-62
2022/08/29 09:18:08;;;;;;;4.40;1.90;;;20.60;99.90;;;;;;5025344;28;20203;-62
2022/08/29 09:20:37;;;;;;;4.32;2.25;;;20.40;99.90;;;;;;5024815;28;20767;-64
2022/08/29 09:23:02;;;;;;;4.10;2.17;;;20.40;99.90;;;;;;5024443;28;20240;-61
2022/08/29 09:25:29;;;;;;;3.40;1.50;;;20.70;99.90;;;;;;5016366;28;20210;-61
2022/08/29 09:27:57;;;;;;;1.92;1.58;;;21.00;99.90;;;;;;5013347;28;20226;-63
2022/08/29 09:30:26;;;;;;;3.53;1.40;;;21.20;99.90;;;;;;5011924;28;20279;-61
2022/08/29 09:33:04;;;;;;;6.70;2.05;;;20.90;99.90;;;;;;5024305;28;20187;-64
2022/08/29 09:35:39;;;;;;;4.32;2.00;;;20.80;99.90;;;;;;5019006;28;20190;-62
2022/08/29 09:38:08;;;;;;;5.20;1.88;;;21.00;99.90;;;;;;5013038;28;20179;-62
2022/08/29 09:40:48;;;;;;;2.25;1.70;;;20.90;99.90;;;;;;5026926;28;20191;-62
2022/08/29 09:43:25;;;;;;;1.73;1.60;;;20.90;99.90;;;;;;5025488;28;20183;-61
2022/08/29 09:46:10;;;;;;;2.97;1.52;;;21.00;99.90;;;;;;5021273;28;20255;-60
2022/08/29 09:48:48;;;;;;;4.35;2.47;;;21.30;99.90;;;;;;5020061;28;20195;-61
2022/08/29 09:51:19;;;;;;;5.40;2.75;;;21.60;99.90;;;;;;5019345;28;20265;-61
2022/08/29 09:53:45;;;;;;;3.08;1.83;;;21.60;99.90;;;;;;5022349;28;20179;-60
2022/08/29 09:56:23;;;;;;;6.75;2.28;;;21.50;99.90;;;;;;5049809;28;20189;-60
2022/08/29 09:59:12;;;;;;;7.13;2.83;;;21.20;99.90;;;;;;5026608;28;20183;-62
2022/08/29 10:01:38;;;;;;;3.15;1.80;;;21.30;99.90;;;;;;5016340;28;20183;-62
2022/08/29 10:04:06;;;;;;;4.60;2.38;;;21.40;99.90;;;;;;5025392;28;20209;-61
2022/08/29 10:06:38;;;;;;;7.65;2.50;;;21.00;99.90;;;;;;5023711;28;20668;-61
2022/08/29 10:09:03;;;;;;;4.03;1.85;;;21.00;99.90;;;;;;5012794;28;20179;-61
2022/08/29 10:11:46;;;;;;;5.82;2.25;;;21.20;99.90;;;;;;5012655;28;20505;-61
2022/08/29 10:14:34;;;;;;;3.88;2.30;;;21.10;99.90;;;;;;5013569;28;20187;-61
2022/08/29 10:20:11;;;;;;;6.97;2.72;;;21.30;99.90;;;;;;5021059;28;20328;-61
2022/08/29 10:22:49;;;;;;;5.47;2.63;;;21.10;99.90;;;;;;5017192;28;20271;-61
2022/08/29 10:25:32;;;;;;;5.13;2.15;;;21.10;99.90;;;;;;5017087;28;20578;-62
2022/08/29 10:28:08;;;;;;;6.35;2.83;;;21.40;99.90;;;;;;5014096;28;20183;-61
2022/08/29 10:30:59;;;;;;;2.65;1.65;;;21.40;99.90;;;;;;5014673;28;20191;-62
2022/08/29 10:33:55;;;;;;;3.90;1.80;;;21.40;99.90;;;;;;5019405;28;20179;-61
2022/08/29 10:36:32;;;;;;;6.22;5.40;;;21.10;99.90;;;;;;5012725;28;20195;-62
2022/08/29 10:39:15;;;;;;;2.55;1.83;;;21.10;99.90;;;;;;5012776;28;20237;-61
2022/08/29 10:41:44;;;;;;;3.63;1.88;;;21.00;99.90;;;;;;5021078;28;20595;-61
2022/08/29 10:44:38;;;;;;;4.90;1.77;;;20.90;99.90;;;;;;5025513;28;20274;-62
2022/08/29 10:47:28;;;;;;;2.67;2.00;;;20.90;99.90;;;;;;5012225;28;20245;-62
2022/08/29 10:50:04;;;;;;;4.63;1.80;;;21.10;99.90;;;;;;5012739;28;20270;-66
2022/08/29 10:52:36;;;;;;;2.72;2.38;;;21.00;99.90;;;;;;5018421;28;20186;-61
2022/08/29 10:55:20;;;;;;;1.65;1.52;;;20.80;99.90;;;;;;5024068;28;20193;-62
2022/08/29 10:58:05;;;;;;;4.30;2.13;;;20.80;99.90;;;;;;5023237;28;20209;-62
2022/08/29 11:01:03;;;;;;;6.47;2.47;;;20.90;99.90;;;;;;5023166;28;20197;-63
2022/08/29 11:03:41;;;;;;;4.78;2.88;;;21.20;99.90;;;;;;5015670;28;20195;-62
2022/08/29 11:06:18;;;;;;;6.13;2.53;;;21.50;99.90;;;;;;5018327;28;20210;-62
2022/08/29 11:08:50;;;;;;;4.30;2.00;;;21.60;99.90;;;;;;5020830;28;20652;-62
2022/08/29 11:11:22;;;;;;;4.30;2.03;;;21.60;99.90;;;;;;5014035;28;20266;-62
2022/08/29 11:13:59;;;;;;;16.50;4.75;;;21.70;99.90;;;;;;5026553;28;20268;-62
2022/08/29 11:16:32;;;;;;;4.60;1.90;;;21.80;99.90;;;;;;5021574;28;20183;-62
2022/08/29 11:19:09;;;;;;;8.68;3.92;;;21.90;99.90;;;;;;5034127;28;20587;-62
2022/08/29 11:21:45;;;;;;;4.88;2.13;;;21.70;99.90;;;;;;5013990;28;20699;-62
2022/08/29 11:24:14;;;;;;;2.45;1.65;;;21.40;99.90;;;;;;5014156;28;20270;-62
2022/08/29 11:26:44;;;;;;;3.58;2.13;;;21.50;99.90;;;;;;5021955;28;20222;-62
2022/08/29 11:29:29;;;;;;;3.33;1.98;;;21.50;99.90;;;;;;5020051;28;20187;-62
2022/08/29 11:31:55;;;;;;;2.47;1.63;;;21.50;99.90;;;;;;5013708;28;20692;-60
2022/08/29 11:34:35;;;;;;;4.60;2.00;;;21.80;99.90;;;;;;5014786;28;20266;-60
2022/08/29 11:37:28;;;;;;;3.10;1.92;;;21.80;99.90;;;;;;5017177;28;20182;-61
2022/08/29 11:40:00;;;;;;;5.63;1.85;;;21.70;99.90;;;;;;5021942;28;20182;-62
2022/08/29 11:42:36;;;;;;;13.98;2.60;;;21.70;99.90;;;;;;5025808;28;20184;-61
2022/08/29 11:45:04;;;;;;;2.90;2.20;;;21.90;99.90;;;;;;5026504;28;20659;-62
2022/08/29 11:48:00;;;;;;;3.25;1.77;;;21.90;99.90;;;;;;5016756;28;20223;-62
2022/08/29 11:50:33;;;;;;;3.30;1.83;;;22.10;99.90;;;;;;5017409;28;20194;-61
2022/08/29 11:53:11;;;;;;;1.88;1.48;;;22.20;99.90;;;;;;5014939;28;20216;-61
2022/08/29 11:55:37;;;;;;;2.88;2.30;;;22.30;99.90;;;;;;5023203;28;20245;-62
2022/08/29 11:58:13;;;;;;;2.63;2.13;;;22.00;99.90;;;;;;5028062;28;20190;-61
2022/08/29 12:00:46;;;;;;;4.15;2.00;;;22.10;99.90;;;;;;5024650;28;20183;-61
2022/08/29 12:03:33;;;;;;;2.75;1.98;;;22.20;99.90;;;;;;5021190;28;20647;-61
2022/08/29 12:06:22;;;;;;;6.80;2.00;;;22.10;99.90;;;;;;5027665;28;20290;-62
2022/08/29 12:09:12;;;;;;;1.92;1.67;;;22.10;99.90;;;;;;5014270;28;20199;-61
2022/08/29 12:12:11;;;;;;;4.53;2.10;;;22.10;99.90;;;;;;5026497;28;20186;-62
2022/08/29 12:14:47;;;;;;;3.70;1.88;;;22.30;99.90;;;;;;5025067;28;20186;-62
2022/08/29 12:17:15;;;;;;;2.78;1.40;;;22.60;99.90;;;;;;5018112;28;20183;-61
2022/08/29 12:19:59;;;;;;;3.92;1.77;;;22.80;99.90;;;;;;5021676;28;20651;-61
2022/08/29 12:22:48;;;;;;;3.75;1.60;;;22.90;99.90;;;;;;5017817;28;20203;-62
2022/08/29 12:25:37;;;;;;;3.88;1.52;;;23.10;99.90;;;;;;5014088;28;20219;-61
2022/08/29 12:28:29;;;;;;;5.07;2.22;;;23.10;99.90;;;;;;5029198;28;20327;-61
2022/08/29 12:30:58;;;;;;;3.70;2.15;;;22.80;99.90;;;;;;5035166;28;20187;-62
2022/08/29 12:33:45;;;;;;;2.45;1.83;;;22.60;99.90;;;;;;5023563;28;20668;-62
2022/08/29 12:36:17;;;;;;;6.55;1.73;;;22.80;99.90;;;;;;5016247;28;20191;-61
2022/08/29 12:39:02;;;;;;;4.47;1.20;;;23.10;99.90;;;;;;5019082;28;20193;-61
2022/08/29 12:42:01;;;;;;;3.17;1.73;;;23.00;99.90;;;;;;5019345;28;20233;-61
2022/08/29 12:44:34;;;;;;;1.95;1.73;;;23.00;99.90;;;;;;5045408;28;20550;-65
2022/08/29 12:47:04;;;;;;;2.33;1.85;;;23.10;99.90;;;;;;5013501;28;20217;-62
2022/08/29 12:49:38;;;;;;;2.25;1.88;;;23.00;99.90;;;;;;5019871;28;20262;-61
2022/08/29 12:52:14;;;;;;;6.10;2.05;;;23.00;99.90;;;;;;5015497;28;20191;-61
2022/08/29 12:54:40;;;;;;;2.90;2.22;;;23.00;99.90;;;;;;5017250;28;20269;-62
2022/08/29 12:57:18;;;;;;;4.70;1.88;;;23.20;99.90;;;;;;5023115;28;20301;-62
2022/08/29 12:59:50;;;;;;;3.80;1.83;;;23.30;99.90;;;;;;5019763;28;20210;-63
2022/08/29 13:02:53;;;;;;;3.78;2.33;;;23.30;99.90;;;;;;5020501;28;20641;-62
2022/08/29 13:05:23;;;;;;;2.90;2.30;;;23.30;99.90;;;;;;5013442;28;20218;-61
2022/08/29 13:07:54;;;;;;;3.35;1.85;;;23.60;99.90;;;;;;5012628;28;20290;-62
2022/08/29 13:10:20;;;;;;;4.18;2.00;;;23.40;99.90;;;;;;5013575;28;20193;-61